sensor_id;sensor_type;location;lat;lon;timestamp;temperature;humidity
9450;DHT22;4763;48.370;10.874;2022-07-23T00:02:02;23.90;99.90
9450;DHT22;4763;48.370;10.874;2022-07-23T00:04:50;23.90;99.90
9450;DHT22;4763;48.370;10.874;2022-07-23T00:07:38;23.90;99.90
9450;DHT22;4763;48.370;10.874;2022-07-23T00:10:26;23.80;99.90
9450;DHT22;4763;48.370;10.874;2022-07-23T00:13:13;23.80;99.90
9450;DHT22;4763;48.370;10.874;2022-07-23T00:16:00;23.80;99.90
9450;DHT22;4763;48.370;10.874;2022-07-23T00:18:48;23.80;99.90
9450;DHT22;4763;48.370;10.874;2022-07-23T00:21:35;23.70;99.90
9450;DHT22;4763;48.370;10.874;2022-07-23T00:24:24;23.80;99.90
9450;DHT22;4763;48.370;10.874;2022-07-23T00:27:11;23.70;99.90
9450;DHT22;4763;48.370;10.874;2022-07-23T00:29:58;23.80;99.90
9450;DHT22;4763;48.370;10.874;2022-07-23T00:32:46;23.80;99.90
9450;DHT22;4763;48.370;10.874;2022-07-23T00:35:36;23.80;99.90
9450;DHT22;4763;48.370;10.874;2022-07-23T00:38:23;23.80;99.90
9450;DHT22;4763;48.370;10.874;2022-07-23T00:41:12;23.90;99.90
9450;DHT22;4763;48.370;10.874;2022-07-23T00:44:15;23.90;99.90
9450;DHT22;4763;48.370;10.874;2022-07-23T00:47:02;24.00;99.90
9450;DHT22;4763;48.370;10.874;2022-07-23T00:49:51;24.10;99.90
9450;DHT22;4763;48.370;10.874;2022-07-23T00:52:39;23.90;99.90
9450;DHT22;4763;48.370;10.874;2022-07-23T00:55:27;23.50;99.90
9450;DHT22;4763;48.370;10.874;2022-07-23T00:58:17;23.30;99.90
9450;DHT22;4763;48.370;10.874;2022-07-23T01:01:05;22.90;99.90
9450;DHT22;4763;48.370;10.874;2022-07-23T01:03:53;22.80;99.90
9450;DHT22;4763;48.370;10.874;2022-07-23T01:06:41;22.70;99.90
9450;DHT22;4763;48.370;10.874;2022-07-23T01:09:30;22.60;99.90
9450;DHT22;4763;48.370;10.874;2022-07-23T01:12:18;22.30;99.90
9450;DHT22;4763;48.370;10.874;2022-07-23T01:15:08;22.20;99.90
9450;DHT22;4763;48.370;10.874;2022-07-23T01:17:55;22.00;99.90
9450;DHT22;4763;48.370;10.874;2022-07-23T01:20:43;22.00;99.90
9450;DHT22;4763;48.370;10.874;2022-07-23T01:23:31;21.90;99.90
9450;DHT22;4763;48.370;10.874;2022-07-23T01:26:19;21.60;99.90
9450;DHT22;4763;48.370;10.874;2022-07-23T01:29:06;21.40;99.90
9450;DHT22;4763;48.370;10.874;2022-07-23T01:31:53;21.30;99.90
9450;DHT22;4763;48.370;10.874;2022-07-23T01:34:40;21.20;99.90
9450;DHT22;4763;48.370;10.874;2022-07-23T01:37:28;20.90;99.90
9450;DHT22;4763;48.370;10.874;2022-07-23T01:40:17;20.90;99.90
9450;DHT22;4763;48.370;10.874;2022-07-23T01:43:05;20.90;99.90
9450;DHT22;4763;48.370;10.874;2022-07-23T01:45:52;20.90;99.90
9450;DHT22;4763;48.370;10.874;2022-07-23T01:48:40;20.70;99.90
9450;DHT22;4763;48.370;10.874;2022-07-23T01:51:27;20.60;99.90
9450;DHT22;4763;48.370;10.874;2022-07-23T01:54:14;20.40;99.90
9450;DHT22;4763;48.370;10.874;2022-07-23T01:57:03;20.40;99.90
9450;DHT22;4763;48.370;10.874;2022-07-23T01:59:51;20.20;99.90
9450;DHT22;4763;48.370;10.874;2022-07-23T02:02:38;20.10;99.90
9450;DHT22;4763;48.370;10.874;2022-07-23T02:05:26;20.00;99.90
9450;DHT22;4763;48.370;10.874;2022-07-23T02:08:14;19.80;99.90
9450;DHT22;4763;48.370;10.874;2022-07-23T02:11:02;19.70;99.90
9450;DHT22;4763;48.370;10.874;2022-07-23T02:13:51;19.60;99.90
9450;DHT22;4763;48.370;10.874;2022-07-23T02:16:39;19.60;99.90
9450;DHT22;4763;48.370;10.874;2022-07-23T02:19:26;19.70;99.90
9450;DHT22;4763;48.370;10.874;2022-07-23T02:22:14;19.70;99.90
9450;DHT22;4763;48.370;10.874;2022-07-23T02:25:01;19.80;99.90
9450;DHT22;4763;48.370;10.874;2022-07-23T02:27:49;19.90;99.90
9450;DHT22;4763;48.370;10.874;2022-07-23T02:30:37;19.90;99.90
9450;DHT22;4763;48.370;10.874;2022-07-23T02:33:25;20.00;99.90
9450;DHT22;4763;48.370;10.874;2022-07-23T02:36:13;20.00;99.90
9450;DHT22;4763;48.370;10.874;2022-07-23T02:39:00;19.90;99.90
9450;DHT22;4763;48.370;10.874;2022-07-23T02:41:47;20.00;99.90
9450;DHT22;4763;48.370;10.874;2022-07-23T02:44:34;20.00;99.90
9450;DHT22;4763;48.370;10.874;2022-07-23T02:47:23;20.00;99.90
9450;DHT22;4763;48.370;10.874;2022-07-23T02:50:11;20.10;99.90
9450;DHT22;4763;48.370;10.874;2022-07-23T02:52:58;20.10;99.90
9450;DHT22;4763;48.370;10.874;2022-07-23T02:55:46;20.10;99.90
9450;DHT22;4763;48.370;10.874;2022-07-23T02:58:33;20.10;99.90
9450;DHT22;4763;48.370;10.874;2022-07-23T03:01:20;20.10;99.90
9450;DHT22;4763;48.370;10.874;2022-07-23T03:04:09;20.00;99.90
9450;DHT22;4763;48.370;10.874;2022-07-23T03:06:57;20.00;99.90
9450;DHT22;4763;48.370;10.874;2022-07-23T03:09:44;20.00;99.90
9450;DHT22;4763;48.370;10.874;2022-07-23T03:12:32;19.80;99.90
9450;DHT22;4763;48.370;10.874;2022-07-23T03:15:19;19.80;99.90
9450;DHT22;4763;48.370;10.874;2022-07-23T03:18:06;19.80;99.90
9450;DHT22;4763;48.370;10.874;2022-07-23T03:20:55;19.70;99.90
9450;DHT22;4763;48.370;10.874;2022-07-23T03:23:42;19.60;99.90
9450;DHT22;4763;48.370;10.874;2022-07-23T03:26:29;19.70;99.90
9450;DHT22;4763;48.370;10.874;2022-07-23T03:29:17;19.70;99.90
9450;DHT22;4763;48.370;10.874;2022-07-23T03:32:05;19.70;99.90
9450;DHT22;4763;48.370;10.874;2022-07-23T03:34:52;19.70;99.90
9450;DHT22;4763;48.370;10.874;2022-07-23T03:37:41;19.70;99.90
9450;DHT22;4763;48.370;10.874;2022-07-23T03:40:28;19.60;99.90
9450;DHT22;4763;48.370;10.874;2022-07-23T03:43:16;19.60;99.90
9450;DHT22;4763;48.370;10.874;2022-07-23T03:46:03;19.60;99.90
9450;DHT22;4763;48.370;10.874;2022-07-23T03:48:51;19.70;99.90
9450;DHT22;4763;48.370;10.874;2022-07-23T03:51:38;19.70;99.90
9450;DHT22;4763;48.370;10.874;2022-07-23T03:54:27;19.70;99.90
9450;DHT22;4763;48.370;10.874;2022-07-23T03:57:14;19.60;99.90
9450;DHT22;4763;48.370;10.874;2022-07-23T04:00:03;19.60;99.90
9450;DHT22;4763;48.370;10.874;2022-07-23T04:02:51;19.50;99.90
9450;DHT22;4763;48.370;10.874;2022-07-23T04:05:38;19.50;99.90
9450;DHT22;4763;48.370;10.874;2022-07-23T04:08:25;19.60;99.90
9450;DHT22;4763;48.370;10.874;2022-07-23T04:11:14;19.60;99.90
9450;DHT22;4763;48.370;10.874;2022-07-23T04:14:02;19.70;99.90
9450;DHT22;4763;48.370;10.874;2022-07-23T04:16:49;19.70;99.90
9450;DHT22;4763;48.370;10.874;2022-07-23T04:19:37;19.70;99.90
9450;DHT22;4763;48.370;10.874;2022-07-23T04:22:26;19.70;99.90
9450;DHT22;4763;48.370;10.874;2022-07-23T04:25:14;19.70;99.90
9450;DHT22;4763;48.370;10.874;2022-07-23T04:28:04;19.70;99.90
9450;DHT22;4763;48.370;10.874;2022-07-23T04:30:51;19.70;99.90
9450;DHT22;4763;48.370;10.874;2022-07-23T04:33:39;19.60;99.90
9450;DHT22;4763;48.370;10.874;2022-07-23T04:36:26;19.60;99.90
9450;DHT22;4763;48.370;10.874;2022-07-23T04:39:13;19.60;99.90
9450;DHT22;4763;48.370;10.874;2022-07-23T04:42:01;19.60;99.90
9450;DHT22;4763;48.370;10.874;2022-07-23T04:44:50;19.70;99.90
9450;DHT22;4763;48.370;10.874;2022-07-23T04:47:37;19.70;99.90
9450;DHT22;4763;48.370;10.874;2022-07-23T04:50:24;19.80;99.90
9450;DHT22;4763;48.370;10.874;2022-07-23T04:53:11;19.70;99.90
9450;DHT22;4763;48.370;10.874;2022-07-23T04:55:58;19.80;99.90
9450;DHT22;4763;48.370;10.874;2022-07-23T04:58:46;19.80;99.90
9450;DHT22;4763;48.370;10.874;2022-07-23T05:01:35;19.90;99.90
9450;DHT22;4763;48.370;10.874;2022-07-23T05:04:22;19.90;99.90
9450;DHT22;4763;48.370;10.874;2022-07-23T05:07:10;19.90;99.90
9450;DHT22;4763;48.370;10.874;2022-07-23T05:09:57;19.90;99.90
9450;DHT22;4763;48.370;10.874;2022-07-23T05:12:44;20.00;99.90
9450;DHT22;4763;48.370;10.874;2022-07-23T05:15:32;20.00;99.90
9450;DHT22;4763;48.370;10.874;2022-07-23T05:18:23;20.00;99.90
9450;DHT22;4763;48.370;10.874;2022-07-23T05:21:10;19.90;99.90
9450;DHT22;4763;48.370;10.874;2022-07-23T05:23:58;20.00;99.90
9450;DHT22;4763;48.370;10.874;2022-07-23T05:26:45;20.00;99.90
9450;DHT22;4763;48.370;10.874;2022-07-23T05:29:33;20.10;99.90
9450;DHT22;4763;48.370;10.874;2022-07-23T05:32:20;20.00;99.90
9450;DHT22;4763;48.370;10.874;2022-07-23T05:35:09;20.10;99.90
9450;DHT22;4763;48.370;10.874;2022-07-23T05:37:56;20.00;99.90
9450;DHT22;4763;48.370;10.874;2022-07-23T05:40:44;20.00;99.90
9450;DHT22;4763;48.370;10.874;2022-07-23T05:43:31;20.00;99.90
9450;DHT22;4763;48.370;10.874;2022-07-23T05:46:18;19.90;99.90
9450;DHT22;4763;48.370;10.874;2022-07-23T05:49:06;19.90;99.90
9450;DHT22;4763;48.370;10.874;2022-07-23T05:51:54;19.90;99.90
9450;DHT22;4763;48.370;10.874;2022-07-23T05:54:42;20.00;99.90
9450;DHT22;4763;48.370;10.874;2022-07-23T05:57:29;20.00;99.90
9450;DHT22;4763;48.370;10.874;2022-07-23T06:00:17;19.90;99.90
9450;DHT22;4763;48.370;10.874;2022-07-23T06:03:04;19.90;99.90
9450;DHT22;4763;48.370;10.874;2022-07-23T06:05:52;19.90;99.90
9450;DHT22;4763;48.370;10.874;2022-07-23T06:08:40;20.00;99.90
9450;DHT22;4763;48.370;10.874;2022-07-23T06:11:28;20.00;99.90
9450;DHT22;4763;48.370;10.874;2022-07-23T06:14:15;20.10;99.90
9450;DHT22;4763;48.370;10.874;2022-07-23T06:17:03;20.10;99.90
9450;DHT22;4763;48.370;10.874;2022-07-23T06:19:50;20.10;99.90
9450;DHT22;4763;48.370;10.874;2022-07-23T06:22:37;20.10;99.90
9450;DHT22;4763;48.370;10.874;2022-07-23T06:25:26;20.10;99.90
9450;DHT22;4763;48.370;10.874;2022-07-23T06:28:13;20.00;99.90
9450;DHT22;4763;48.370;10.874;2022-07-23T06:31:01;20.00;99.90
9450;DHT22;4763;48.370;10.874;2022-07-23T06:33:48;20.00;99.90
9450;DHT22;4763;48.370;10.874;2022-07-23T06:36:36;20.00;99.90
9450;DHT22;4763;48.370;10.874;2022-07-23T06:39:23;20.00;99.90
9450;DHT22;4763;48.370;10.874;2022-07-23T06:42:12;20.00;99.90
9450;DHT22;4763;48.370;10.874;2022-07-23T06:45:00;20.00;99.90
9450;DHT22;4763;48.370;10.874;2022-07-23T06:47:48;20.10;99.90
9450;DHT22;4763;48.370;10.874;2022-07-23T06:50:35;20.00;99.90
9450;DHT22;4763;48.370;10.874;2022-07-23T06:53:23;20.10;99.90
9450;DHT22;4763;48.370;10.874;2022-07-23T06:56:10;20.10;99.90
9450;DHT22;4763;48.370;10.874;2022-07-23T06:58:59;20.10;99.90
9450;DHT22;4763;48.370;10.874;2022-07-23T07:01:46;20.10;99.90
9450;DHT22;4763;48.370;10.874;2022-07-23T07:04:34;20.10;99.90
9450;DHT22;4763;48.370;10.874;2022-07-23T07:07:21;20.10;99.90
9450;DHT22;4763;48.370;10.874;2022-07-23T07:10:09;20.10;99.90
9450;DHT22;4763;48.370;10.874;2022-07-23T07:12:56;20.00;99.90
9450;DHT22;4763;48.370;10.874;2022-07-23T07:15:45;20.00;99.90
9450;DHT22;4763;48.370;10.874;2022-07-23T07:18:32;20.00;99.90
9450;DHT22;4763;48.370;10.874;2022-07-23T07:21:20;20.10;99.90
9450;DHT22;4763;48.370;10.874;2022-07-23T07:24:07;20.10;99.90
9450;DHT22;4763;48.370;10.874;2022-07-23T07:26:54;20.20;99.90
9450;DHT22;4763;48.370;10.874;2022-07-23T07:29:42;20.10;99.90
9450;DHT22;4763;48.370;10.874;2022-07-23T07:32:31;20.10;99.90
9450;DHT22;4763;48.370;10.874;2022-07-23T07:35:19;20.10;99.90
9450;DHT22;4763;48.370;10.874;2022-07-23T07:38:06;20.20;99.90
9450;DHT22;4763;48.370;10.874;2022-07-23T07:40:54;20.20;99.90
9450;DHT22;4763;48.370;10.874;2022-07-23T07:43:41;20.30;99.90
9450;DHT22;4763;48.370;10.874;2022-07-23T07:46:28;20.40;99.90
9450;DHT22;4763;48.370;10.874;2022-07-23T07:49:17;20.40;99.90
9450;DHT22;4763;48.370;10.874;2022-07-23T07:52:05;20.50;99.90
9450;DHT22;4763;48.370;10.874;2022-07-23T07:54:53;20.60;99.90
9450;DHT22;4763;48.370;10.874;2022-07-23T07:57:40;20.80;99.90
9450;DHT22;4763;48.370;10.874;2022-07-23T08:00:28;20.90;99.90
9450;DHT22;4763;48.370;10.874;2022-07-23T08:03:15;20.80;99.90
9450;DHT22;4763;48.370;10.874;2022-07-23T08:06:04;20.70;99.90
9450;DHT22;4763;48.370;10.874;2022-07-23T08:08:52;20.80;99.90
9450;DHT22;4763;48.370;10.874;2022-07-23T08:11:42;20.90;99.90
9450;DHT22;4763;48.370;10.874;2022-07-23T08:14:30;20.90;99.90
9450;DHT22;4763;48.370;10.874;2022-07-23T08:17:17;21.00;99.90
9450;DHT22;4763;48.370;10.874;2022-07-23T08:20:05;21.10;99.90
9450;DHT22;4763;48.370;10.874;2022-07-23T08:22:56;21.20;99.90
9450;DHT22;4763;48.370;10.874;2022-07-23T08:25:45;21.50;99.90
9450;DHT22;4763;48.370;10.874;2022-07-23T08:28:32;21.90;99.90
9450;DHT22;4763;48.370;10.874;2022-07-23T08:31:19;22.30;99.90
9450;DHT22;4763;48.370;10.874;2022-07-23T08:34:07;22.70;99.90
9450;DHT22;4763;48.370;10.874;2022-07-23T08:36:55;22.70;99.90
9450;DHT22;4763;48.370;10.874;2022-07-23T08:39:44;23.10;99.90
9450;DHT22;4763;48.370;10.874;2022-07-23T08:42:32;23.50;99.90
9450;DHT22;4763;48.370;10.874;2022-07-23T08:45:23;23.90;99.90
9450;DHT22;4763;48.370;10.874;2022-07-23T08:48:12;24.10;99.90
9450;DHT22;4763;48.370;10.874;2022-07-23T08:51:02;24.20;99.90
9450;DHT22;4763;48.370;10.874;2022-07-23T08:53:50;24.50;99.90
9450;DHT22;4763;48.370;10.874;2022-07-23T08:59:25;24.90;99.90
9450;DHT22;4763;48.370;10.874;2022-07-23T09:02:16;25.00;99.90
9450;DHT22;4763;48.370;10.874;2022-07-23T09:05:04;25.10;99.90
9450;DHT22;4763;48.370;10.874;2022-07-23T09:08:06;25.20;99.90
9450;DHT22;4763;48.370;10.874;2022-07-23T09:10:56;25.60;99.90
9450;DHT22;4763;48.370;10.874;2022-07-23T09:13:47;25.70;99.90
9450;DHT22;4763;48.370;10.874;2022-07-23T09:16:36;25.70;99.90
9450;DHT22;4763;48.370;10.874;2022-07-23T09:19:27;25.70;99.90
9450;DHT22;4763;48.370;10.874;2022-07-23T09:22:20;25.70;99.90
9450;DHT22;4763;48.370;10.874;2022-07-23T09:25:10;25.80;99.90
9450;DHT22;4763;48.370;10.874;2022-07-23T09:27:59;25.90;99.90
9450;DHT22;4763;48.370;10.874;2022-07-23T09:30:51;26.00;99.90
9450;DHT22;4763;48.370;10.874;2022-07-23T09:33:40;26.20;99.90
9450;DHT22;4763;48.370;10.874;2022-07-23T09:36:28;26.30;99.90
9450;DHT22;4763;48.370;10.874;2022-07-23T09:39:24;26.50;99.90
9450;DHT22;4763;48.370;10.874;2022-07-23T09:42:15;26.60;99.90
9450;DHT22;4763;48.370;10.874;2022-07-23T09:45:04;26.60;99.90
9450;DHT22;4763;48.370;10.874;2022-07-23T09:48:10;26.80;99.90
9450;DHT22;4763;48.370;10.874;2022-07-23T09:51:03;26.70;99.90
9450;DHT22;4763;48.370;10.874;2022-07-23T09:53:51;27.00;99.90
9450;DHT22;4763;48.370;10.874;2022-07-23T09:56:39;27.10;99.90
9450;DHT22;4763;48.370;10.874;2022-07-23T09:59:29;27.00;99.90
9450;DHT22;4763;48.370;10.874;2022-07-23T10:02:17;27.00;99.90
9450;DHT22;4763;48.370;10.874;2022-07-23T10:05:06;26.90;99.90
9450;DHT22;4763;48.370;10.874;2022-07-23T10:07:55;27.10;99.90
9450;DHT22;4763;48.370;10.874;2022-07-23T10:10:42;27.00;99.90
9450;DHT22;4763;48.370;10.874;2022-07-23T10:13:30;26.90;99.90
9450;DHT22;4763;48.370;10.874;2022-07-23T10:16:49;27.10;99.90
9450;DHT22;4763;48.370;10.874;2022-07-23T10:19:37;27.40;99.90
9450;DHT22;4763;48.370;10.874;2022-07-23T10:22:26;27.70;99.90
9450;DHT22;4763;48.370;10.874;2022-07-23T10:25:24;27.70;99.90
9450;DHT22;4763;48.370;10.874;2022-07-23T10:28:29;27.60;99.90
9450;DHT22;4763;48.370;10.874;2022-07-23T10:31:28;27.70;99.90
9450;DHT22;4763;48.370;10.874;2022-07-23T10:34:25;27.80;99.90
9450;DHT22;4763;48.370;10.874;2022-07-23T10:37:16;27.60;99.90
9450;DHT22;4763;48.370;10.874;2022-07-23T10:40:16;27.40;99.90
9450;DHT22;4763;48.370;10.874;2022-07-23T10:43:13;27.30;99.90
9450;DHT22;4763;48.370;10.874;2022-07-23T10:46:21;27.20;99.90
9450;DHT22;4763;48.370;10.874;2022-07-23T10:49:23;27.30;99.90
9450;DHT22;4763;48.370;10.874;2022-07-23T10:52:45;27.40;99.90
9450;DHT22;4763;48.370;10.874;2022-07-23T10:56:04;27.50;99.90
9450;DHT22;4763;48.370;10.874;2022-07-23T10:58:51;27.40;99.90
9450;DHT22;4763;48.370;10.874;2022-07-23T11:01:39;27.50;99.90
9450;DHT22;4763;48.370;10.874;2022-07-23T11:04:50;27.60;99.90
9450;DHT22;4763;48.370;10.874;2022-07-23T11:08:11;27.60;99.90
9450;DHT22;4763;48.370;10.874;2022-07-23T11:11:11;27.50;99.90
9450;DHT22;4763;48.370;10.874;2022-07-23T11:13:58;27.70;99.90
9450;DHT22;4763;48.370;10.874;2022-07-23T11:16:47;28.00;99.90
9450;DHT22;4763;48.370;10.874;2022-07-23T11:20:12;28.50;99.90
9450;DHT22;4763;48.370;10.874;2022-07-23T11:23:01;28.40;99.90
9450;DHT22;4763;48.370;10.874;2022-07-23T11:25:49;28.40;99.90
9450;DHT22;4763;48.370;10.874;2022-07-23T11:28:38;28.80;99.90
9450;DHT22;4763;48.370;10.874;2022-07-23T11:31:26;29.20;99.90
9450;DHT22;4763;48.370;10.874;2022-07-23T11:34:29;29.00;99.90
9450;DHT22;4763;48.370;10.874;2022-07-23T11:37:28;29.70;99.90
9450;DHT22;4763;48.370;10.874;2022-07-23T11:40:17;29.70;99.90
9450;DHT22;4763;48.370;10.874;2022-07-23T11:43:06;29.70;99.90
9450;DHT22;4763;48.370;10.874;2022-07-23T11:45:59;29.50;99.90
9450;DHT22;4763;48.370;10.874;2022-07-23T11:49:01;29.60;99.90
9450;DHT22;4763;48.370;10.874;2022-07-23T11:52:05;29.50;99.90
9450;DHT22;4763;48.370;10.874;2022-07-23T11:54:54;29.40;99.90
9450;DHT22;4763;48.370;10.874;2022-07-23T11:57:43;29.10;99.90
9450;DHT22;4763;48.370;10.874;2022-07-23T12:00:31;29.00;99.90
9450;DHT22;4763;48.370;10.874;2022-07-23T12:03:23;29.10;99.90
9450;DHT22;4763;48.370;10.874;2022-07-23T12:06:11;28.80;99.90
9450;DHT22;4763;48.370;10.874;2022-07-23T12:08:58;28.90;99.90
9450;DHT22;4763;48.370;10.874;2022-07-23T12:11:59;29.20;99.90
9450;DHT22;4763;48.370;10.874;2022-07-23T12:14:54;29.70;99.90
9450;DHT22;4763;48.370;10.874;2022-07-23T12:17:44;29.50;99.90
9450;DHT22;4763;48.370;10.874;2022-07-23T12:20:35;29.30;99.90
9450;DHT22;4763;48.370;10.874;2022-07-23T12:23:25;28.80;99.90
9450;DHT22;4763;48.370;10.874;2022-07-23T12:26:13;28.40;99.90
9450;DHT22;4763;48.370;10.874;2022-07-23T12:29:00;28.40;99.90
9450;DHT22;4763;48.370;10.874;2022-07-23T12:31:48;28.60;99.90
9450;DHT22;4763;48.370;10.874;2022-07-23T12:34:36;28.70;99.90
9450;DHT22;4763;48.370;10.874;2022-07-23T12:37:29;29.00;99.90
9450;DHT22;4763;48.370;10.874;2022-07-23T12:40:23;29.40;99.90
9450;DHT22;4763;48.370;10.874;2022-07-23T12:43:18;29.30;99.90
9450;DHT22;4763;48.370;10.874;2022-07-23T12:46:08;29.20;99.90
9450;DHT22;4763;48.370;10.874;2022-07-23T12:48:56;29.10;99.90
9450;DHT22;4763;48.370;10.874;2022-07-23T12:51:43;28.80;99.90
9450;DHT22;4763;48.370;10.874;2022-07-23T12:54:32;28.70;99.90
9450;DHT22;4763;48.370;10.874;2022-07-23T12:57:19;28.90;99.90
9450;DHT22;4763;48.370;10.874;2022-07-23T13:00:26;29.10;99.90
9450;DHT22;4763;48.370;10.874;2022-07-23T13:03:21;29.20;99.90
9450;DHT22;4763;48.370;10.874;2022-07-23T13:06:09;29.20;99.90
9450;DHT22;4763;48.370;10.874;2022-07-23T13:08:57;29.20;99.90
9450;DHT22;4763;48.370;10.874;2022-07-23T13:11:48;29.40;99.90
9450;DHT22;4763;48.370;10.874;2022-07-23T13:14:35;29.20;99.90
9450;DHT22;4763;48.370;10.874;2022-07-23T13:17:22;29.00;99.90
9450;DHT22;4763;48.370;10.874;2022-07-23T13:20:11;28.80;99.90
9450;DHT22;4763;48.370;10.874;2022-07-23T13:22:58;28.70;99.90
9450;DHT22;4763;48.370;10.874;2022-07-23T13:25:46;28.50;99.90
9450;DHT22;4763;48.370;10.874;2022-07-23T13:28:35;28.40;99.90
9450;DHT22;4763;48.370;10.874;2022-07-23T13:31:22;28.20;99.90
9450;DHT22;4763;48.370;10.874;2022-07-23T13:34:09;28.40;99.90
9450;DHT22;4763;48.370;10.874;2022-07-23T13:36:57;28.50;99.90
9450;DHT22;4763;48.370;10.874;2022-07-23T13:39:44;28.80;99.90
9450;DHT22;4763;48.370;10.874;2022-07-23T13:42:32;29.20;99.90
9450;DHT22;4763;48.370;10.874;2022-07-23T13:45:21;29.40;99.90
9450;DHT22;4763;48.370;10.874;2022-07-23T13:48:08;29.30;99.90
9450;DHT22;4763;48.370;10.874;2022-07-23T13:50:56;29.60;99.90
9450;DHT22;4763;48.370;10.874;2022-07-23T13:53:43;29.40;99.90
9450;DHT22;4763;48.370;10.874;2022-07-23T13:56:30;29.30;99.90
9450;DHT22;4763;48.370;10.874;2022-07-23T13:59:18;29.00;99.90
9450;DHT22;4763;48.370;10.874;2022-07-23T14:02:06;28.70;99.90
9450;DHT22;4763;48.370;10.874;2022-07-23T14:04:54;28.60;99.90
9450;DHT22;4763;48.370;10.874;2022-07-23T14:07:42;28.80;99.90
9450;DHT22;4763;48.370;10.874;2022-07-23T14:10:30;29.10;99.90
9450;DHT22;4763;48.370;10.874;2022-07-23T14:13:18;29.30;99.90
9450;DHT22;4763;48.370;10.874;2022-07-23T14:16:05;29.50;99.90
9450;DHT22;4763;48.370;10.874;2022-07-23T14:18:54;29.90;99.90
9450;DHT22;4763;48.370;10.874;2022-07-23T14:21:41;30.10;99.90
9450;DHT22;4763;48.370;10.874;2022-07-23T14:24:29;30.20;99.90
9450;DHT22;4763;48.370;10.874;2022-07-23T14:27:16;30.60;99.90
9450;DHT22;4763;48.370;10.874;2022-07-23T14:30:05;30.80;99.90
9450;DHT22;4763;48.370;10.874;2022-07-23T14:32:53;30.80;99.90
9450;DHT22;4763;48.370;10.874;2022-07-23T14:35:41;31.00;99.90
9450;DHT22;4763;48.370;10.874;2022-07-23T14:38:29;30.80;99.90
9450;DHT22;4763;48.370;10.874;2022-07-23T14:41:16;31.00;99.90
9450;DHT22;4763;48.370;10.874;2022-07-23T14:44:05;31.10;99.90
9450;DHT22;4763;48.370;10.874;2022-07-23T14:46:53;31.30;99.90
9450;DHT22;4763;48.370;10.874;2022-07-23T14:49:40;31.40;99.90
9450;DHT22;4763;48.370;10.874;2022-07-23T14:52:28;30.80;99.90
9450;DHT22;4763;48.370;10.874;2022-07-23T14:55:16;30.30;99.90
9450;DHT22;4763;48.370;10.874;2022-07-23T14:58:04;30.00;99.90
9450;DHT22;4763;48.370;10.874;2022-07-23T15:00:51;29.60;99.90
9450;DHT22;4763;48.370;10.874;2022-07-23T15:03:40;29.30;99.90
9450;DHT22;4763;48.370;10.874;2022-07-23T15:06:27;29.10;99.90
9450;DHT22;4763;48.370;10.874;2022-07-23T15:09:17;28.90;99.90
9450;DHT22;4763;48.370;10.874;2022-07-23T15:12:04;28.80;99.90
9450;DHT22;4763;48.370;10.874;2022-07-23T15:14:52;28.70;99.90
9450;DHT22;4763;48.370;10.874;2022-07-23T15:17:39;28.60;99.90
9450;DHT22;4763;48.370;10.874;2022-07-23T15:20:26;28.40;99.90
9450;DHT22;4763;48.370;10.874;2022-07-23T15:23:14;28.30;99.90
9450;DHT22;4763;48.370;10.874;2022-07-23T15:26:03;28.10;99.90
9450;DHT22;4763;48.370;10.874;2022-07-23T15:28:51;28.00;99.90
9450;DHT22;4763;48.370;10.874;2022-07-23T15:31:39;27.90;99.90
9450;DHT22;4763;48.370;10.874;2022-07-23T15:34:27;27.80;99.90
9450;DHT22;4763;48.370;10.874;2022-07-23T15:37:14;27.70;99.90
9450;DHT22;4763;48.370;10.874;2022-07-23T15:40:03;27.60;99.90
9450;DHT22;4763;48.370;10.874;2022-07-23T15:42:53;27.60;99.90
9450;DHT22;4763;48.370;10.874;2022-07-23T15:45:41;27.60;99.90
9450;DHT22;4763;48.370;10.874;2022-07-23T15:48:36;27.50;99.90
9450;DHT22;4763;48.370;10.874;2022-07-23T15:51:24;27.60;99.90
9450;DHT22;4763;48.370;10.874;2022-07-23T15:54:11;27.60;99.90
9450;DHT22;4763;48.370;10.874;2022-07-23T15:56:59;27.60;99.90
9450;DHT22;4763;48.370;10.874;2022-07-23T15:59:47;28.00;99.90
9450;DHT22;4763;48.370;10.874;2022-07-23T16:02:35;28.60;99.90
9450;DHT22;4763;48.370;10.874;2022-07-23T16:05:22;29.50;99.90
9450;DHT22;4763;48.370;10.874;2022-07-23T16:08:10;29.80;99.90
9450;DHT22;4763;48.370;10.874;2022-07-23T16:10:57;29.80;99.90
9450;DHT22;4763;48.370;10.874;2022-07-23T16:13:45;29.90;99.90
9450;DHT22;4763;48.370;10.874;2022-07-23T16:16:34;30.10;99.90
9450;DHT22;4763;48.370;10.874;2022-07-23T16:19:24;29.90;99.90
9450;DHT22;4763;48.370;10.874;2022-07-23T16:22:12;29.70;99.90
9450;DHT22;4763;48.370;10.874;2022-07-23T16:25:02;29.50;99.90
9450;DHT22;4763;48.370;10.874;2022-07-23T16:27:49;29.20;99.90
9450;DHT22;4763;48.370;10.874;2022-07-23T16:30:36;29.10;99.90
9450;DHT22;4763;48.370;10.874;2022-07-23T16:33:26;29.10;99.90
9450;DHT22;4763;48.370;10.874;2022-07-23T16:36:14;29.10;99.90
9450;DHT22;4763;48.370;10.874;2022-07-23T16:39:02;29.10;99.90
9450;DHT22;4763;48.370;10.874;2022-07-23T16:41:49;29.00;99.90
9450;DHT22;4763;48.370;10.874;2022-07-23T16:44:44;28.90;99.90
9450;DHT22;4763;48.370;10.874;2022-07-23T16:47:35;29.00;99.90
9450;DHT22;4763;48.370;10.874;2022-07-23T16:50:24;29.00;99.90
9450;DHT22;4763;48.370;10.874;2022-07-23T16:53:12;29.10;99.90
9450;DHT22;4763;48.370;10.874;2022-07-23T16:55:59;29.10;99.90
9450;DHT22;4763;48.370;10.874;2022-07-23T16:58:46;29.20;99.90
9450;DHT22;4763;48.370;10.874;2022-07-23T17:01:34;29.20;99.90
9450;DHT22;4763;48.370;10.874;2022-07-23T17:04:21;29.30;99.90
9450;DHT22;4763;48.370;10.874;2022-07-23T17:07:10;29.20;99.90
9450;DHT22;4763;48.370;10.874;2022-07-23T17:09:57;29.20;99.90
9450;DHT22;4763;48.370;10.874;2022-07-23T17:12:45;29.20;99.90
9450;DHT22;4763;48.370;10.874;2022-07-23T17:15:32;28.60;99.90
9450;DHT22;4763;48.370;10.874;2022-07-23T17:18:20;28.40;99.90
9450;DHT22;4763;48.370;10.874;2022-07-23T17:21:08;28.30;99.90
9450;DHT22;4763;48.370;10.874;2022-07-23T17:23:57;28.20;99.90
9450;DHT22;4763;48.370;10.874;2022-07-23T17:26:45;28.10;99.90
9450;DHT22;4763;48.370;10.874;2022-07-23T17:29:32;28.00;99.90
9450;DHT22;4763;48.370;10.874;2022-07-23T17:32:19;27.90;99.90
9450;DHT22;4763;48.370;10.874;2022-07-23T17:35:07;27.80;99.90
9450;DHT22;4763;48.370;10.874;2022-07-23T17:37:55;27.70;99.90
9450;DHT22;4763;48.370;10.874;2022-07-23T17:40:44;27.60;99.90
9450;DHT22;4763;48.370;10.874;2022-07-23T17:43:31;27.60;99.90
9450;DHT22;4763;48.370;10.874;2022-07-23T17:46:18;27.70;99.90
9450;DHT22;4763;48.370;10.874;2022-07-23T17:49:06;27.70;99.90
9450;DHT22;4763;48.370;10.874;2022-07-23T17:51:53;27.60;99.90
9450;DHT22;4763;48.370;10.874;2022-07-23T17:54:40;27.50;99.90
9450;DHT22;4763;48.370;10.874;2022-07-23T17:57:29;27.40;99.90
9450;DHT22;4763;48.370;10.874;2022-07-23T18:00:19;27.30;99.90
9450;DHT22;4763;48.370;10.874;2022-07-23T18:03:06;27.20;99.90
9450;DHT22;4763;48.370;10.874;2022-07-23T18:05:54;27.20;99.90
9450;DHT22;4763;48.370;10.874;2022-07-23T18:08:41;27.20;99.90